createdAt,value
2018-09-29T00:00:21.768Z,99010.74
2018-09-29T00:02:54.596Z,99013.52
2018-09-29T00:05:26.972Z,99012.55
2018-09-29T00:07:59.472Z,99014.59
2018-09-29T00:10:31.861Z,99014.52
2018-09-29T00:13:04.289Z,99028.08
2018-09-29T00:15:36.573Z,99027.17
2018-09-29T00:18:08.944Z,99017.66
2018-09-29T00:20:41.252Z,99037.43
2018-09-29T00:23:13.643Z,99038.10
2018-09-29T00:25:45.919Z,99038.31
2018-09-29T00:28:18.270Z,99039.72
2018-09-29T00:30:50.574Z,99033.16
2018-09-29T00:33:22.892Z,99032.42
2018-09-29T00:35:55.193Z,99032.58
2018-09-29T00:38:27.473Z,99040.83
2018-09-29T00:40:59.728Z,99043.72
2018-09-29T00:43:32.043Z,99039.61
2018-09-29T00:46:04.297Z,99040.30
2018-09-29T00:48:36.693Z,99033.35
2018-09-29T00:51:08.908Z,99041.70
2018-09-29T00:53:41.208Z,99032.83
2018-09-29T00:56:13.459Z,99032.43
2018-09-29T00:58:45.866Z,99026.94
2018-09-29T01:01:18.162Z,99024.86
2018-09-29T01:03:50.480Z,99018.64
2018-09-29T01:06:22.760Z,99019.36
2018-09-29T01:08:55.085Z,99018.81
2018-09-29T01:11:27.402Z,99019.61
2018-09-29T01:13:59.733Z,99023.09
2018-09-29T01:16:31.979Z,99021.50
2018-09-29T01:19:04.343Z,99019.83
2018-09-29T01:21:36.599Z,99018.19
2018-09-29T01:24:08.901Z,99005.05
2018-09-29T01:26:41.178Z,99008.30
2018-09-29T01:29:13.521Z,99011.46
2018-09-29T01:31:45.825Z,99003.24
2018-09-29T01:34:18.116Z,99006.55
2018-09-29T01:36:50.347Z,98996.61
2018-09-29T01:39:22.645Z,98992.09
2018-09-29T01:41:54.926Z,98997.37
2018-09-29T01:44:27.220Z,98986.70
2018-09-29T01:46:59.516Z,98985.00
2018-09-29T01:49:31.840Z,98979.13
2018-09-29T01:52:04.124Z,98983.06
2018-09-29T01:54:36.432Z,98987.72
2018-09-29T01:57:08.681Z,98977.02
2018-09-29T01:59:41.033Z,98979.42
2018-09-29T02:02:13.312Z,98974.91
2018-09-29T02:04:45.557Z,98964.45
2018-09-29T02:07:17.924Z,98971.79
2018-09-29T02:09:51.660Z,98966.65
2018-09-29T02:12:24.001Z,98953.62
2018-09-29T02:14:56.456Z,98955.38
2018-09-29T02:17:28.887Z,98955.22
2018-09-29T02:20:01.149Z,98958.30
2018-09-29T02:22:33.448Z,98963.95
2018-09-29T02:25:05.796Z,98965.29
2018-09-29T02:27:38.052Z,98967.71
2018-09-29T02:30:10.301Z,98967.45
2018-09-29T02:32:42.572Z,98969.53
2018-09-29T02:35:14.819Z,98972.74
2018-09-29T02:37:47.113Z,98977.38
2018-09-29T02:40:19.410Z,98976.57
2018-09-29T02:42:51.741Z,98981.02
2018-09-29T02:45:23.978Z,98976.93
2018-09-29T02:47:56.263Z,98979.41
2018-09-29T02:50:28.555Z,98971.95
2018-09-29T02:53:00.930Z,98965.50
2018-09-29T02:55:33.181Z,98971.43
2018-09-29T02:58:05.506Z,98971.95
2018-09-29T03:00:37.894Z,98971.92
2018-09-29T03:03:10.172Z,98966.31
2018-09-29T03:05:42.425Z,98969.89
2018-09-29T03:08:14.708Z,98975.56
2018-09-29T03:10:46.960Z,98981.06
2018-09-29T03:13:19.337Z,98976.11
2018-09-29T03:15:51.663Z,98976.53
2018-09-29T03:18:23.930Z,98984.98
2018-09-29T03:20:56.205Z,98984.62
2018-09-29T03:23:28.600Z,98981.63
2018-09-29T03:26:00.872Z,98982.90
2018-09-29T03:28:33.159Z,98987.25
2018-09-29T03:31:05.721Z,98983.84
2018-09-29T03:33:37.971Z,98982.14
2018-09-29T03:36:10.226Z,98984.38
2018-09-29T03:38:42.441Z,98985.63
2018-09-29T03:41:15.137Z,98996.26
2018-09-29T03:43:47.475Z,98997.00
2018-09-29T03:46:20.268Z,98995.80
2018-09-29T03:48:52.580Z,98997.77
2018-09-29T03:51:24.929Z,98988.59
2018-09-29T03:53:57.323Z,98997.52
2018-09-29T03:56:29.565Z,98993.06
2018-09-29T03:59:02.036Z,98994.70
2018-09-29T04:01:34.272Z,98993.43
2018-09-29T04:04:06.609Z,98995.27
2018-09-29T04:06:38.989Z,98991.46
2018-09-29T04:09:11.297Z,98989.66
2018-09-29T04:11:43.657Z,98985.57
2018-09-29T04:14:15.917Z,98983.36
2018-09-29T04:16:48.247Z,98985.59
2018-09-29T04:19:20.528Z,98990.77
2018-09-29T04:21:52.776Z,98994.07
2018-09-29T04:24:25.186Z,98995.16
2018-09-29T04:26:57.421Z,99009.45
2018-09-29T04:29:30.073Z,99005.64
2018-09-29T04:32:02.288Z,99007.69
2018-09-29T04:34:34.701Z,99009.71
2018-09-29T04:37:07.037Z,99012.50
2018-09-29T04:39:39.280Z,99013.30
2018-09-29T04:42:11.584Z,99015.10
2018-09-29T04:44:43.965Z,99000.20
2018-09-29T04:47:16.215Z,99009.77
2018-09-29T04:49:48.490Z,99009.67
2018-09-29T04:52:20.885Z,99013.76
2018-09-29T04:54:53.232Z,99016.20
2018-09-29T04:57:25.561Z,99023.07
2018-09-29T04:59:58.116Z,99017.97
2018-09-29T05:02:30.469Z,99027.40
2018-09-29T05:05:03.241Z,99024.10
2018-09-29T05:07:35.489Z,99025.87
2018-09-29T05:10:07.784Z,99026.66
2018-09-29T05:12:40.017Z,99032.39
2018-09-29T05:15:12.510Z,99028.32
2018-09-29T05:17:45.240Z,99024.36
2018-09-29T05:20:17.561Z,99031.66
2018-09-29T05:22:49.953Z,99029.06
2018-09-29T05:25:22.216Z,99021.80
2018-09-29T05:27:54.499Z,99026.55
2018-09-29T05:30:26.767Z,99033.31
2018-09-29T05:32:59.030Z,99035.63
2018-09-29T05:35:31.257Z,99040.83
2018-09-29T05:38:03.525Z,99042.59
2018-09-29T05:40:42.616Z,99041.10
2018-09-29T05:43:14.968Z,99041.21
2018-09-29T05:45:47.269Z,99042.98
2018-09-29T05:48:19.536Z,99039.05
2018-09-29T05:50:51.812Z,99039.94
2018-09-29T05:53:24.121Z,99040.44
2018-09-29T05:55:56.373Z,99042.98
2018-09-29T05:58:28.633Z,99033.03
2018-09-29T06:01:00.925Z,99032.50
2018-09-29T06:03:33.178Z,99035.53
2018-09-29T06:06:05.451Z,99038.17
2018-09-29T06:08:37.764Z,99035.30
2018-09-29T06:11:10.417Z,99026.39
2018-09-29T06:13:42.672Z,99035.14
2018-09-29T06:16:14.957Z,99035.09
2018-09-29T06:18:47.229Z,99037.23
2018-09-29T06:21:19.505Z,99039.89
2018-09-29T06:23:51.830Z,99033.05
2018-09-29T06:26:24.157Z,99040.42
2018-09-29T06:28:56.423Z,99033.36
2018-09-29T06:31:28.713Z,99043.32
2018-09-29T06:34:01.008Z,99046.95
2018-09-29T06:36:33.340Z,99047.95
2018-09-29T06:39:07.275Z,99058.99
2018-09-29T06:41:39.573Z,99060.52
2018-09-29T06:44:11.813Z,99066.07
2018-09-29T06:46:44.153Z,99054.18
2018-09-29T06:49:16.408Z,99064.68
2018-09-29T06:51:48.759Z,99058.27
2018-09-29T06:54:21.115Z,99061.66
2018-09-29T06:56:53.405Z,99052.72
2018-09-29T06:59:25.665Z,99071.83
2018-09-29T07:01:58.017Z,99070.80
2018-09-29T07:04:30.357Z,99073.42
2018-09-29T07:07:02.701Z,99065.16
2018-09-29T07:09:34.940Z,99068.61
2018-09-29T07:12:07.272Z,99069.09
2018-09-29T07:14:39.601Z,99058.83
2018-09-29T07:17:11.945Z,99066.48
2018-09-29T07:19:44.223Z,99071.36
2018-09-29T07:22:16.533Z,99068.40
2018-09-29T07:24:48.818Z,99061.57
2018-09-29T07:27:21.143Z,99067.81
2018-09-29T07:29:53.518Z,99061.79
2018-09-29T07:32:25.848Z,99070.09
2018-09-29T07:34:58.167Z,99076.91
2018-09-29T07:37:30.532Z,99066.31
2018-09-29T07:40:02.857Z,99083.23
2018-09-29T07:42:35.204Z,99073.04
2018-09-29T07:45:07.510Z,99063.06
2018-09-29T07:47:39.804Z,99066.62
2018-09-29T07:50:12.089Z,99062.77
2018-09-29T07:52:44.451Z,99060.20
2018-09-29T07:55:16.753Z,99067.70
2018-09-29T07:57:49.063Z,99068.80
2018-09-29T08:00:21.437Z,99065.27
2018-09-29T08:02:53.755Z,99056.80
2018-09-29T08:05:26.069Z,99068.82
2018-09-29T08:07:58.351Z,99056.89
2018-09-29T08:10:30.677Z,99053.89
2018-09-29T08:13:03.083Z,99052.80
2018-09-29T08:15:35.539Z,99047.35
2018-09-29T08:18:07.917Z,99043.47
2018-09-29T08:20:40.241Z,99036.41
2018-09-29T08:23:12.760Z,99043.55
2018-09-29T08:25:45.232Z,99049.65
2018-09-29T08:28:17.586Z,99044.88
2018-09-29T08:30:49.940Z,99057.00
2018-09-29T08:33:22.299Z,99053.28
2018-09-29T08:35:54.651Z,99057.27
2018-09-29T08:38:27.195Z,99048.33
2018-09-29T08:40:59.555Z,99045.58
2018-09-29T08:43:31.893Z,99033.03
2018-09-29T08:46:04.264Z,99026.06
2018-09-29T08:48:36.595Z,99029.85
2018-09-29T08:51:08.987Z,99022.89
2018-09-29T08:53:41.392Z,99021.96
2018-09-29T08:56:13.729Z,99018.37
2018-09-29T08:58:45.998Z,99027.09
2018-09-29T09:01:18.325Z,99008.95
2018-09-29T09:03:50.634Z,99009.00
2018-09-29T09:06:22.997Z,99001.47
2018-09-29T09:08:55.330Z,99008.09
2018-09-29T09:11:27.690Z,99000.83
2018-09-29T09:14:00.051Z,98995.97
2018-09-29T09:16:32.557Z,98991.07
2018-09-29T09:19:04.998Z,98986.44
2018-09-29T09:21:37.326Z,99002.27
2018-09-29T09:24:09.748Z,99002.11
2018-09-29T09:26:42.090Z,98993.06
2018-09-29T09:29:14.390Z,98995.33
2018-09-29T09:31:46.794Z,98990.48
2018-09-29T09:34:19.088Z,98988.21
2018-09-29T09:36:51.420Z,98989.89
2018-09-29T09:39:23.839Z,98994.19
2018-09-29T09:41:56.161Z,98989.20
2018-09-29T09:44:28.510Z,98996.63
2018-09-29T09:47:00.830Z,98988.01
2018-09-29T09:49:33.234Z,98989.20
2018-09-29T09:52:05.575Z,98984.04
2018-09-29T09:54:37.904Z,98978.40
2018-09-29T09:57:10.213Z,98974.23
2018-09-29T09:59:42.589Z,98969.86
2018-09-29T10:02:20.787Z,98971.63
2018-09-29T10:04:53.077Z,98971.16
2018-09-29T10:07:25.415Z,98974.05
2018-09-29T10:09:57.749Z,98975.49
2018-09-29T10:12:30.156Z,98974.69
2018-09-29T10:15:02.530Z,98979.87
2018-09-29T10:17:34.992Z,98957.94
2018-09-29T10:20:07.261Z,98958.69
2018-09-29T10:22:39.646Z,98961.44
2018-09-29T10:25:12.023Z,98949.50
2018-09-29T10:27:44.413Z,98953.02
2018-09-29T10:30:16.678Z,98953.84
2018-09-29T10:32:49.082Z,98937.16
2018-09-29T10:35:21.365Z,98941.66
2018-09-29T10:37:53.713Z,98943.53
2018-09-29T10:40:26.072Z,98941.41
2018-09-29T10:42:58.513Z,98938.11
2018-09-29T10:45:30.948Z,98938.35
2018-09-29T10:48:03.288Z,98939.19
2018-09-29T10:50:35.585Z,98923.02
2018-09-29T10:53:07.898Z,98923.83
2018-09-29T10:55:40.182Z,98921.75
2018-09-29T10:58:12.564Z,98920.09
2018-09-29T11:00:44.891Z,98914.48
2018-09-29T11:03:17.314Z,98912.13
2018-09-29T11:05:49.657Z,98906.75
2018-09-29T11:08:21.924Z,98912.94
2018-09-29T11:10:54.268Z,98911.69
2018-09-29T11:13:26.591Z,98900.30
2018-09-29T11:15:58.915Z,98908.58
2018-09-29T11:18:31.484Z,98899.09
2018-09-29T11:21:03.871Z,98891.42
2018-09-29T11:23:36.278Z,98901.51
2018-09-29T11:26:08.602Z,98888.84
2018-09-29T11:28:40.894Z,98883.23
2018-09-29T11:31:13.224Z,98885.02
2018-09-29T11:33:45.566Z,98883.59
2018-09-29T11:36:17.993Z,98874.53
2018-09-29T11:38:50.372Z,98881.50
2018-09-29T11:41:22.644Z,98871.03
2018-09-29T11:43:55.068Z,98859.46
2018-09-29T11:46:27.349Z,98851.63
2018-09-29T11:48:59.679Z,98862.02
2018-09-29T11:51:31.999Z,98848.31
2018-09-29T11:54:04.423Z,98842.97
2018-09-29T11:56:36.726Z,98828.55
2018-09-29T11:59:09.082Z,98821.77
2018-09-29T12:01:41.420Z,98834.98
2018-09-29T12:04:13.697Z,98830.64
2018-09-29T12:06:45.967Z,98823.73
2018-09-29T12:09:18.349Z,98826.04
2018-09-29T12:11:50.714Z,98814.56
2018-09-29T12:14:23.074Z,98806.19
2018-09-29T12:16:55.300Z,98803.97
2018-09-29T12:19:27.660Z,98807.03
2018-09-29T12:21:59.920Z,98796.37
2018-09-29T12:24:32.206Z,98797.06
2018-09-29T12:27:04.510Z,98790.81
2018-09-29T12:29:36.889Z,98783.75
2018-09-29T12:32:09.220Z,98782.20
2018-09-29T12:34:41.602Z,98789.69
2018-09-29T12:37:14.156Z,98781.42
2018-09-29T12:39:46.338Z,98770.62
2018-09-29T12:42:18.706Z,98763.27
2018-09-29T12:44:51.088Z,98765.44
2018-09-29T12:47:23.324Z,98768.90
2018-09-29T12:49:55.629Z,98760.63
2018-09-29T12:52:27.914Z,98754.63
2018-09-29T12:55:00.298Z,98752.31
2018-09-29T12:57:32.560Z,98747.28
2018-09-29T13:00:05.086Z,98730.67
2018-09-29T13:02:37.412Z,98736.67
2018-09-29T13:05:09.769Z,98735.71
2018-09-29T13:07:42.100Z,98744.13
2018-09-29T13:10:14.438Z,98735.73
2018-09-29T13:12:46.714Z,98731.56
2018-09-29T13:15:19.029Z,98737.27
2018-09-29T13:17:51.367Z,98732.77
2018-09-29T13:20:23.685Z,98732.77
2018-09-29T13:22:56.010Z,98732.09
2018-09-29T13:25:28.309Z,98725.38
2018-09-29T13:28:00.574Z,98726.64
2018-09-29T13:30:32.924Z,98713.79
2018-09-29T13:33:05.205Z,98712.29
2018-09-29T13:35:37.468Z,98710.66
2018-09-29T13:38:09.786Z,98704.15
2018-09-29T13:40:42.057Z,98689.17
2018-09-29T13:43:14.450Z,98689.33
2018-09-29T13:45:46.781Z,98683.53
2018-09-29T13:48:19.115Z,98689.02
2018-09-29T13:50:51.373Z,98683.72
2018-09-29T13:53:23.676Z,98689.17
2018-09-29T13:55:55.956Z,98686.72
2018-09-29T13:58:28.246Z,98681.39
2018-09-29T14:01:00.946Z,98688.59
2018-09-29T14:03:33.259Z,98668.88
2018-09-29T14:06:05.621Z,98671.16
2018-09-29T14:08:37.970Z,98658.27
2018-09-29T14:11:10.281Z,98662.14
2018-09-29T14:13:42.610Z,98658.78
2018-09-29T14:16:15.032Z,98659.20
2018-09-29T14:18:47.331Z,98653.16
2018-09-29T14:21:19.605Z,98652.15
2018-09-29T14:23:51.918Z,98642.34
2018-09-29T14:26:24.233Z,98638.72
2018-09-29T14:28:56.528Z,98636.96
2018-09-29T14:31:28.858Z,98640.48
2018-09-29T14:34:01.191Z,98632.77
2018-09-29T14:36:33.549Z,98641.34
2018-09-29T14:39:07.423Z,98633.84
2018-09-29T14:41:39.870Z,98629.87
2018-09-29T14:44:12.152Z,98635.80
2018-09-29T14:46:44.488Z,98631.55
2018-09-29T14:49:16.753Z,98627.09
2018-09-29T14:51:49.068Z,98618.53
2018-09-29T14:54:21.412Z,98621.20
2018-09-29T14:56:53.740Z,98625.12
2018-09-29T14:59:26.076Z,98620.33
2018-09-29T15:01:58.371Z,98624.78
2018-09-29T15:04:30.780Z,98616.91
2018-09-29T15:07:03.139Z,98628.30
2018-09-29T15:09:35.491Z,98620.66
2018-09-29T15:12:07.807Z,98624.30
2018-09-29T15:14:40.081Z,98630.25
2018-09-29T15:17:12.360Z,98628.05
2018-09-29T15:19:44.672Z,98623.16
2018-09-29T15:22:17.013Z,98622.03
2018-09-29T15:24:49.368Z,98615.41
2018-09-29T15:27:21.673Z,98617.16
2018-09-29T15:29:53.964Z,98613.98
2018-09-29T15:32:26.233Z,98609.57
2018-09-29T15:34:58.517Z,98609.70
2018-09-29T15:37:30.829Z,98601.81
2018-09-29T15:40:03.261Z,98603.03
2018-09-29T15:42:35.661Z,98597.57
2018-09-29T15:45:08.521Z,98598.81
2018-09-29T15:47:40.781Z,98594.94
2018-09-29T15:50:13.084Z,98596.16
2018-09-29T15:52:45.387Z,98592.80
2018-09-29T15:55:17.692Z,98598.64
2018-09-29T15:57:50.060Z,98592.34
2018-09-29T16:00:22.355Z,98590.72
2018-09-29T16:02:54.652Z,98595.01
2018-09-29T16:05:26.974Z,98596.37
2018-09-29T16:07:59.534Z,98593.22
2018-09-29T16:10:31.790Z,98598.34
2018-09-29T16:13:04.237Z,98591.40
2018-09-29T16:15:36.543Z,98590.36
2018-09-29T16:18:08.836Z,98588.27
2018-09-29T16:20:41.738Z,98591.16
2018-09-29T16:23:14.451Z,98583.28
2018-09-29T16:25:46.821Z,98580.42
2018-09-29T16:28:19.101Z,98589.33
2018-09-29T16:30:51.851Z,98582.73
2018-09-29T16:33:24.290Z,98584.22
2018-09-29T16:35:56.657Z,98583.61
2018-09-29T16:38:29.386Z,98580.89
2018-09-29T16:41:02.240Z,98590.22
2018-09-29T16:43:34.698Z,98586.48
2018-09-29T16:46:07.668Z,98586.06
2018-09-29T16:48:40.292Z,98595.49
2018-09-29T16:51:13.108Z,98593.97
2018-09-29T16:53:45.647Z,98596.08
2018-09-29T16:56:17.931Z,98599.34
2018-09-29T16:58:50.270Z,98600.14
2018-09-29T17:01:22.627Z,98600.22
2018-09-29T17:03:55.008Z,98598.32
2018-09-29T17:06:27.265Z,98600.42
2018-09-29T17:08:59.556Z,98602.18
2018-09-29T17:11:31.909Z,98597.28
2018-09-29T17:14:04.265Z,98601.17
2018-09-29T17:16:36.599Z,98596.27
2018-09-29T17:19:08.904Z,98601.59
2018-09-29T17:21:41.172Z,98600.17
2018-09-29T17:24:13.497Z,98610.48
2018-09-29T17:26:45.808Z,98610.74
2018-09-29T17:29:18.129Z,98610.74
2018-09-29T17:31:50.479Z,98608.18
2018-09-29T17:34:22.769Z,98609.31
2018-09-29T17:36:55.100Z,98615.83
2018-09-29T17:39:27.409Z,98613.25
2018-09-29T17:41:59.701Z,98619.67
2018-09-29T17:44:32.009Z,98622.60
2018-09-29T17:47:04.521Z,98633.38
2018-09-29T17:49:36.837Z,98636.50
2018-09-29T17:52:09.152Z,98642.91
2018-09-29T17:54:41.460Z,98641.36
2018-09-29T17:57:13.803Z,98639.67
2018-09-29T17:59:47.019Z,98642.23
2018-09-29T18:02:19.352Z,98637.13
2018-09-29T18:04:51.699Z,98644.16
2018-09-29T18:07:24.022Z,98646.03
2018-09-29T18:09:56.378Z,98645.88
2018-09-29T18:12:29.009Z,98652.45
2018-09-29T18:15:01.560Z,98650.89
2018-09-29T18:17:33.915Z,98650.83
2018-09-29T18:20:07.009Z,98649.48
2018-09-29T18:22:39.582Z,98654.45
2018-09-29T18:25:12.139Z,98654.56
2018-09-29T18:27:44.669Z,98657.77
2018-09-29T18:30:17.035Z,98655.75
2018-09-29T18:32:49.337Z,98648.16
2018-09-29T18:35:21.688Z,98650.47
2018-09-29T18:37:54.099Z,98652.72
2018-09-29T18:40:26.532Z,98657.84
2018-09-29T18:42:58.954Z,98657.25
2018-09-29T18:45:31.335Z,98666.04
2018-09-29T18:48:03.744Z,98669.28
2018-09-29T18:50:36.077Z,98663.50
2018-09-29T18:53:08.524Z,98654.32
2018-09-29T18:55:40.824Z,98657.88
2018-09-29T18:58:13.361Z,98655.89
2018-09-29T19:00:45.740Z,98655.04
2018-09-29T19:03:18.066Z,98645.27
2018-09-29T19:05:50.443Z,98650.47
2018-09-29T19:08:22.900Z,98644.30
2018-09-29T19:10:55.254Z,98654.09
2018-09-29T19:13:27.760Z,98647.29
2018-09-29T19:16:00.126Z,98640.89
2018-09-29T19:18:32.425Z,98639.70
2018-09-29T19:21:04.756Z,98638.59
2018-09-29T19:23:37.162Z,98641.75
2018-09-29T19:26:09.531Z,98636.98
2018-09-29T19:28:41.924Z,98631.19
2018-09-29T19:31:14.318Z,98636.30
2018-09-29T19:33:46.876Z,98642.38
2018-09-29T19:36:19.191Z,98642.38
2018-09-29T19:38:51.485Z,98635.70
2018-09-29T19:41:23.819Z,98636.05
2018-09-29T19:43:56.462Z,98637.41
2018-09-29T19:46:28.867Z,98638.20
2018-09-29T19:49:01.193Z,98642.70
2018-09-29T19:51:33.715Z,98633.36
2018-09-29T19:54:06.178Z,98638.08
2018-09-29T19:56:38.667Z,98640.02
2018-09-29T19:59:10.988Z,98644.09
2018-09-29T20:01:43.334Z,98636.11
2018-09-29T20:04:15.661Z,98645.77
2018-09-29T20:06:48.057Z,98645.44
2018-09-29T20:09:20.399Z,98640.77
2018-09-29T20:11:52.827Z,98640.09
2018-09-29T20:14:25.443Z,98626.73
2018-09-29T20:16:57.816Z,98631.31
2018-09-29T20:19:30.358Z,98632.22
2018-09-29T20:22:03.332Z,98630.48
2018-09-29T20:24:35.741Z,98630.14
2018-09-29T20:27:08.594Z,98627.82
2018-09-29T20:29:41.241Z,98630.17
2018-09-29T20:32:13.635Z,98627.11
2018-09-29T20:34:46.081Z,98629.74
2018-09-29T20:37:18.530Z,98629.44
2018-09-29T20:39:50.872Z,98629.52
2018-09-29T20:42:23.261Z,98631.46
2018-09-29T20:44:55.624Z,98622.30
2018-09-29T20:47:27.952Z,98622.80
2018-09-29T20:50:00.316Z,98623.89
2018-09-29T20:52:32.649Z,98626.01
2018-09-29T20:55:05.336Z,98628.03
2018-09-29T20:57:38.013Z,98625.30
2018-09-29T21:00:10.339Z,98627.94
2018-09-29T21:02:42.642Z,98623.58
2018-09-29T21:05:15.018Z,98619.67
2018-09-29T21:07:47.416Z,98620.90
2018-09-29T21:10:19.754Z,98624.59
2018-09-29T21:12:52.179Z,98620.51
2018-09-29T21:15:24.448Z,98620.28
2018-09-29T21:17:56.749Z,98624.90
2018-09-29T21:20:29.086Z,98619.23
2018-09-29T21:23:01.409Z,98619.45
2018-09-29T21:25:33.781Z,98623.88
2018-09-29T21:28:06.147Z,98616.84
2018-09-29T21:30:38.477Z,98610.46
2018-09-29T21:33:10.798Z,98622.77
2018-09-29T21:35:43.117Z,98618.83
2018-09-29T21:38:15.466Z,98612.27
2018-09-29T21:40:47.969Z,98616.16
2018-09-29T21:43:20.292Z,98614.36
2018-09-29T21:45:52.562Z,98615.67
2018-09-29T21:48:24.874Z,98622.34
2018-09-29T21:50:57.172Z,98616.26
2018-09-29T21:53:29.471Z,98623.64
2018-09-29T21:56:01.821Z,98613.17
2018-09-29T21:58:34.163Z,98607.62
2018-09-29T22:01:12.033Z,98612.72
2018-09-29T22:03:44.391Z,98616.95
2018-09-29T22:06:16.678Z,98613.55
2018-09-29T22:08:49.000Z,98614.69
2018-09-29T22:11:21.277Z,98617.22
2018-09-29T22:13:54.169Z,98614.69
2018-09-29T22:16:26.509Z,98614.66
2018-09-29T22:18:58.776Z,98605.52
2018-09-29T22:21:31.085Z,98608.58
2018-09-29T22:24:03.348Z,98605.86
2018-09-29T22:26:35.686Z,98600.48
2018-09-29T22:29:07.939Z,98597.19
2018-09-29T22:31:40.264Z,98599.75
2018-09-29T22:34:12.605Z,98593.85
2018-09-29T22:36:44.925Z,98591.95
2018-09-29T22:39:17.267Z,98591.98
2018-09-29T22:41:49.580Z,98597.33
2018-09-29T22:44:21.910Z,98589.77
2018-09-29T22:46:54.249Z,98582.63
2018-09-29T22:49:26.604Z,98582.87
2018-09-29T22:51:58.890Z,98578.86
2018-09-29T22:54:31.240Z,98577.86
2018-09-29T22:57:03.593Z,98575.32
2018-09-29T22:59:35.952Z,98567.81
2018-09-29T23:02:08.315Z,98570.45
2018-09-29T23:04:40.668Z,98576.83
2018-09-29T23:07:13.099Z,98574.05
2018-09-29T23:09:45.365Z,98575.37
2018-09-29T23:12:17.661Z,98574.38
2018-09-29T23:14:49.957Z,98570.84
2018-09-29T23:17:22.288Z,98574.66
2018-09-29T23:19:54.723Z,98576.42
2018-09-29T23:22:26.982Z,98558.36
2018-09-29T23:24:59.255Z,98560.03
2018-09-29T23:27:31.545Z,98559.90
2018-09-29T23:30:04.116Z,98559.39
2018-09-29T23:32:36.420Z,98552.66
2018-09-29T23:35:08.637Z,98555.34
2018-09-29T23:37:40.908Z,98556.09
2018-09-29T23:40:13.194Z,98548.50
2018-09-29T23:42:45.528Z,98548.50
2018-09-29T23:45:17.884Z,98547.13
2018-09-29T23:47:50.245Z,98541.41
2018-09-29T23:50:22.594Z,98540.92
2018-09-29T23:52:54.856Z,98537.60
2018-09-29T23:55:27.156Z,98528.46
2018-09-29T23:57:59.456Z,98536.23
